createdAt,value
2022-08-09T00:00:13.834Z,99.90
2022-08-09T00:02:47.343Z,99.90
2022-08-09T00:06:18.224Z,99.90
2022-08-09T00:08:04.106Z,99.90
2022-08-09T00:10:37.772Z,99.90
2022-08-09T00:13:17.263Z,99.90
2022-08-09T00:15:58.709Z,99.90
2022-08-09T00:18:29.292Z,99.90
2022-08-09T00:20:56.020Z,99.90
2022-08-09T00:23:54.570Z,99.90
2022-08-09T00:26:11.318Z,99.90
2022-08-09T00:28:39.630Z,99.90
2022-08-09T00:31:30.392Z,99.90
2022-08-09T00:33:54.643Z,99.90
2022-08-09T00:36:29.810Z,99.90
2022-08-09T00:38:58.090Z,99.90
2022-08-09T00:44:19.576Z,99.90
2022-08-09T00:44:24.719Z,99.90
2022-08-09T00:47:05.447Z,99.90
2022-08-09T00:49:34.848Z,99.90
2022-08-09T00:52:15.970Z,99.90
2022-08-09T00:54:45.730Z,99.90
2022-08-09T00:57:12.741Z,99.90
2022-08-09T00:59:46.557Z,99.90
2022-08-09T01:02:22.034Z,99.90
2022-08-09T01:05:21.782Z,99.90
2022-08-09T01:08:05.019Z,99.90
2022-08-09T01:10:43.797Z,99.90
2022-08-09T01:13:42.021Z,99.90
2022-08-09T01:16:23.491Z,99.90
2022-08-09T01:19:02.118Z,99.90
2022-08-09T01:21:58.366Z,99.90
2022-08-09T01:25:05.293Z,99.90
2022-08-09T01:27:36.498Z,99.90
2022-08-09T01:30:08.305Z,99.90
2022-08-09T01:32:57.067Z,99.90
2022-08-09T01:35:38.725Z,99.90
2022-08-09T01:38:15.467Z,99.90
2022-08-09T01:40:52.641Z,99.90
2022-08-09T01:43:32.332Z,99.90
2022-08-09T01:46:26.493Z,99.90
2022-08-09T01:48:59.887Z,99.90
2022-08-09T01:51:32.522Z,99.90
2022-08-09T01:54:02.834Z,99.90
2022-08-09T01:56:32.260Z,99.90
2022-08-09T01:59:01.979Z,99.90
2022-08-09T02:02:00.272Z,99.90
2022-08-09T02:04:20.501Z,99.90
2022-08-09T02:07:17.884Z,99.90
2022-08-09T02:10:07.505Z,99.90
2022-08-09T02:12:36.206Z,99.90
2022-08-09T02:15:06.143Z,99.90
2022-08-09T02:18:00.057Z,99.90
2022-08-09T02:20:26.581Z,99.90
2022-08-09T02:23:07.943Z,99.90
2022-08-09T02:25:42.056Z,99.90
2022-08-09T02:28:27.330Z,99.90
2022-08-09T02:31:06.202Z,99.90
2022-08-09T02:34:06.980Z,99.90
2022-08-09T02:36:42.004Z,99.90
2022-08-09T02:39:14.391Z,99.90
2022-08-09T02:41:45.604Z,99.90
2022-08-09T02:44:30.170Z,99.90
2022-08-09T02:47:00.963Z,99.90
2022-08-09T02:49:38.478Z,99.90
2022-08-09T02:52:11.741Z,99.90
2022-08-09T02:54:54.248Z,99.90
2022-08-09T02:57:25.236Z,99.90
2022-08-09T03:00:20.784Z,99.90
2022-08-09T03:02:46.271Z,99.90
2022-08-09T03:05:25.937Z,99.90
2022-08-09T03:07:55.101Z,99.90
2022-08-09T03:10:24.005Z,99.90
2022-08-09T03:12:52.089Z,99.90
2022-08-09T03:15:20.802Z,99.90
2022-08-09T03:17:53.893Z,99.90
2022-08-09T03:20:29.458Z,99.90
2022-08-09T03:23:00.460Z,99.90
2022-08-09T03:25:58.596Z,99.90
2022-08-09T03:28:27.164Z,99.90
2022-08-09T03:30:55.512Z,99.90
2022-08-09T03:33:23.322Z,99.90
2022-08-09T03:36:12.614Z,99.90
2022-08-09T03:38:42.953Z,99.90
2022-08-09T03:41:16.318Z,99.90
2022-08-09T03:44:04.055Z,99.90
2022-08-09T03:46:31.660Z,99.90
2022-08-09T03:49:04.155Z,99.90
2022-08-09T03:51:57.431Z,99.90
2022-08-09T03:54:29.405Z,99.90
2022-08-09T03:56:58.182Z,99.90
2022-08-09T03:59:27.342Z,99.90
2022-08-09T04:02:10.338Z,99.90
2022-08-09T04:04:38.799Z,99.90
2022-08-09T04:07:06.022Z,99.90
2022-08-09T04:09:47.636Z,99.90
2022-08-09T04:12:36.286Z,99.90
2022-08-09T04:15:17.246Z,99.90
2022-08-09T04:17:50.541Z,99.90
2022-08-09T04:20:19.008Z,99.90
2022-08-09T04:22:47.387Z,99.90
2022-08-09T04:25:17.335Z,99.90
2022-08-09T04:27:49.095Z,99.90
2022-08-09T04:30:20.877Z,99.90
2022-08-09T04:32:50.174Z,99.90
2022-08-09T04:35:17.455Z,99.90
2022-08-09T04:37:48.436Z,99.90
2022-08-09T04:40:19.121Z,99.90
2022-08-09T04:42:56.839Z,99.90
2022-08-09T04:45:24.060Z,99.90
2022-08-09T04:48:00.236Z,99.90
2022-08-09T04:50:31.974Z,99.90
2022-08-09T04:53:07.749Z,99.90
2022-08-09T04:55:57.655Z,99.90
2022-08-09T04:58:25.687Z,99.90
2022-08-09T05:00:54.234Z,99.90
2022-08-09T05:03:40.613Z,99.90
2022-08-09T05:06:09.994Z,99.90
2022-08-09T05:08:38.401Z,99.90
2022-08-09T05:11:07.531Z,99.90
2022-08-09T05:13:38.589Z,99.90
2022-08-09T05:16:10.176Z,99.90
2022-08-09T05:18:58.127Z,99.90
2022-08-09T05:21:24.914Z,99.90
2022-08-09T05:24:02.035Z,99.90
2022-08-09T05:26:45.637Z,99.90
2022-08-09T05:29:21.902Z,99.90
2022-08-09T05:31:56.092Z,99.90
2022-08-09T05:34:30.936Z,99.90
2022-08-09T05:37:05.904Z,99.90
2022-08-09T05:39:43.867Z,99.90
2022-08-09T05:42:17.840Z,99.90
2022-08-09T05:44:52.528Z,99.90
2022-08-09T05:47:22.512Z,99.90
2022-08-09T05:50:30.150Z,99.90
2022-08-09T05:52:38.696Z,99.90
2022-08-09T05:55:08.770Z,99.90
2022-08-09T05:57:50.804Z,99.90
2022-08-09T06:00:26.945Z,99.90
2022-08-09T06:02:59.611Z,99.90
2022-08-09T06:05:31.255Z,99.90
2022-08-09T06:08:19.695Z,99.90
2022-08-09T06:10:52.964Z,99.90
2022-08-09T06:13:21.212Z,99.90
2022-08-09T06:15:51.554Z,99.90
2022-08-09T06:18:25.305Z,99.90
2022-08-09T06:20:58.441Z,99.90
2022-08-09T06:23:55.815Z,99.90
2022-08-09T06:26:20.108Z,99.90
2022-08-09T06:29:01.123Z,99.90
2022-08-09T06:31:40.584Z,99.90
2022-08-09T06:34:22.556Z,99.90
2022-08-09T06:36:57.359Z,99.90
2022-08-09T06:39:39.582Z,99.90
2022-08-09T06:42:14.303Z,99.90
2022-08-09T06:44:41.643Z,99.90
2022-08-09T06:47:10.562Z,99.90
2022-08-09T06:50:12.835Z,99.90
2022-08-09T06:52:25.258Z,99.90
2022-08-09T06:54:52.242Z,99.90
2022-08-09T06:57:42.749Z,99.90
2022-08-09T07:00:51.634Z,99.90
2022-08-09T07:02:57.105Z,99.90
2022-08-09T07:05:24.604Z,99.90
2022-08-09T07:08:11.160Z,99.90
2022-08-09T07:10:38.562Z,99.90
2022-08-09T07:13:27.646Z,99.90
2022-08-09T07:16:38.628Z,99.90
2022-08-09T07:18:39.517Z,99.90
2022-08-09T07:21:08.189Z,99.90
2022-08-09T07:23:36.039Z,99.90
2022-08-09T07:26:04.129Z,99.90
2022-08-09T07:28:34.633Z,99.90
2022-08-09T07:31:04.571Z,99.90
2022-08-09T07:33:53.264Z,99.90
2022-08-09T07:36:22.091Z,99.90
2022-08-09T07:38:56.752Z,99.90
2022-08-09T07:41:26.423Z,99.90
2022-08-09T07:43:56.408Z,99.90
2022-08-09T07:46:23.519Z,99.90
2022-08-09T07:48:59.526Z,99.90
2022-08-09T07:52:04.277Z,99.90
2022-08-09T07:54:14.739Z,99.90
2022-08-09T07:56:49.248Z,99.90
2022-08-09T07:59:25.737Z,99.90
2022-08-09T08:02:06.672Z,99.90
2022-08-09T08:04:36.394Z,99.10
2022-08-09T08:07:15.525Z,97.10
2022-08-09T08:09:55.131Z,96.40
2022-08-09T08:12:34.521Z,95.60
2022-08-09T08:15:01.402Z,95.50
2022-08-09T08:17:52.334Z,93.20
2022-08-09T08:20:15.459Z,94.00
2022-08-09T08:22:42.843Z,94.80
2022-08-09T08:25:13.451Z,92.40
2022-08-09T08:27:43.088Z,92.90
2022-08-09T08:30:11.573Z,90.70
2022-08-09T08:32:52.790Z,90.50
2022-08-09T08:35:22.538Z,91.30
2022-08-09T08:38:02.070Z,92.00
2022-08-09T08:40:33.113Z,91.50
2022-08-09T08:43:03.262Z,91.30
2022-08-09T08:45:51.384Z,86.50
2022-08-09T08:48:21.997Z,83.60
2022-08-09T08:50:49.465Z,80.50
2022-08-09T08:53:21.900Z,78.50
2022-08-09T08:55:49.045Z,76.30
2022-08-09T08:58:27.143Z,73.70
2022-08-09T09:00:56.924Z,72.40
2022-08-09T09:03:37.229Z,71.70
2022-08-09T09:06:06.742Z,71.00
2022-08-09T09:08:42.533Z,71.50
2022-08-09T09:11:17.217Z,73.30
2022-08-09T09:13:55.383Z,69.70
2022-08-09T09:16:30.318Z,69.30
2022-08-09T09:19:21.589Z,68.40
2022-08-09T09:22:04.194Z,67.20
2022-08-09T09:24:38.921Z,66.90
2022-08-09T09:27:08.509Z,69.50
2022-08-09T09:30:11.563Z,69.60
2022-08-09T09:32:34.450Z,69.30
2022-08-09T09:35:01.999Z,66.00
2022-08-09T09:37:31.931Z,65.80
2022-08-09T09:39:59.927Z,64.30
2022-08-09T09:42:30.924Z,60.60
2022-08-09T09:45:03.091Z,61.20
2022-08-09T09:47:30.320Z,59.40
2022-08-09T09:50:14.520Z,60.00
2022-08-09T09:52:56.829Z,59.50
2022-08-09T09:55:31.970Z,58.90
2022-08-09T09:58:19.340Z,57.80
2022-08-09T10:00:58.894Z,56.40
2022-08-09T10:03:57.565Z,58.40
2022-08-09T10:06:28.305Z,54.80
2022-08-09T10:09:02.739Z,55.00
2022-08-09T10:11:59.172Z,54.90
2022-08-09T10:14:30.745Z,54.00
2022-08-09T10:17:39.151Z,54.00
2022-08-09T10:19:58.825Z,54.00
2022-08-09T10:22:36.820Z,52.00
2022-08-09T10:25:11.050Z,51.40
2022-08-09T10:27:45.405Z,52.30
2022-08-09T10:34:07.845Z,50.60
2022-08-09T10:36:02.718Z,52.30
2022-08-09T10:38:33.765Z,51.40
2022-08-09T10:41:07.485Z,49.90
2022-08-09T10:43:50.777Z,49.10
2022-08-09T10:46:54.717Z,51.50
2022-08-09T10:49:54.242Z,50.70
2022-08-09T10:52:45.193Z,49.80
2022-08-09T10:55:22.791Z,50.80
2022-08-09T10:57:52.065Z,52.70
2022-08-09T11:00:56.906Z,53.30
2022-08-09T11:03:50.025Z,52.60
2022-08-09T11:06:21.154Z,50.80
2022-08-09T11:08:53.121Z,49.90
2022-08-09T11:11:21.787Z,49.30
2022-08-09T11:14:28.015Z,48.90
2022-08-09T11:16:56.038Z,48.20
2022-08-09T11:20:08.132Z,47.90
2022-08-09T11:22:43.326Z,46.20
2022-08-09T11:25:18.227Z,45.40
2022-08-09T11:28:05.433Z,44.70
2022-08-09T11:30:36.821Z,44.70
2022-08-09T11:33:16.996Z,43.50
2022-08-09T11:35:50.271Z,44.80
2022-08-09T11:38:33.061Z,44.00
2022-08-09T11:41:13.027Z,43.50
2022-08-09T11:43:48.656Z,42.90
2022-08-09T11:46:26.662Z,41.40
2022-08-09T11:49:05.310Z,42.60
2022-08-09T11:52:53.957Z,44.00
2022-08-09T11:55:51.520Z,43.20
2022-08-09T11:58:14.514Z,44.40
2022-08-09T12:00:55.375Z,44.50
2022-08-09T12:03:54.762Z,43.60
2022-08-09T12:06:14.902Z,43.00
2022-08-09T12:08:53.035Z,44.20
2022-08-09T12:11:22.348Z,44.40
2022-08-09T12:14:08.447Z,44.40
2022-08-09T12:16:40.445Z,45.50
2022-08-09T12:19:12.966Z,46.80
2022-08-09T12:21:50.448Z,47.60
2022-08-09T12:24:25.857Z,49.50
2022-08-09T12:29:14.151Z,50.00
2022-08-09T12:30:04.010Z,50.90
2022-08-09T12:32:41.778Z,51.50
2022-08-09T12:35:12.620Z,49.50
2022-08-09T12:37:51.558Z,47.10
2022-08-09T12:40:24.438Z,46.10
2022-08-09T12:42:52.051Z,46.60
2022-08-09T12:45:34.593Z,46.80
2022-08-09T12:48:19.954Z,49.10
2022-08-09T12:50:55.705Z,47.40
2022-08-09T12:53:37.093Z,46.70
2022-08-09T12:56:37.108Z,48.40
2022-08-09T12:59:10.912Z,46.80
2022-08-09T13:01:42.640Z,46.50
2022-08-09T13:04:36.147Z,45.30
2022-08-09T13:07:19.356Z,44.20
2022-08-09T13:09:55.608Z,44.70
2022-08-09T13:12:28.016Z,45.10
2022-08-09T13:15:07.358Z,47.40
2022-08-09T13:18:02.492Z,48.30
2022-08-09T13:20:37.794Z,49.50
2022-08-09T13:24:15.937Z,49.10
2022-08-09T13:26:05.601Z,49.90
2022-08-09T13:28:39.722Z,49.20
2022-08-09T13:32:13.513Z,49.30
2022-08-09T13:33:56.967Z,50.70
2022-08-09T13:36:41.713Z,51.80
2022-08-09T13:41:21.238Z,52.10
2022-08-09T13:42:11.024Z,50.50
2022-08-09T13:44:44.144Z,49.70
2022-08-09T13:47:29.188Z,50.00
2022-08-09T13:50:07.873Z,50.40
2022-08-09T13:52:40.417Z,50.60
2022-08-09T13:55:13.796Z,51.40
2022-08-09T13:57:44.085Z,50.50
2022-08-09T14:00:16.276Z,50.50
2022-08-09T14:03:03.464Z,50.30
2022-08-09T14:05:59.858Z,48.50
2022-08-09T14:08:19.923Z,48.50
2022-08-09T14:10:52.044Z,48.80
2022-08-09T14:13:21.825Z,49.50
2022-08-09T14:16:09.711Z,48.30
2022-08-09T14:18:37.404Z,48.10
2022-08-09T14:21:05.842Z,47.60
2022-08-09T14:23:40.457Z,47.90
2022-08-09T14:26:20.492Z,47.70
2022-08-09T14:28:47.616Z,48.30
2022-08-09T14:31:14.434Z,47.60
2022-08-09T14:33:42.218Z,47.00
2022-08-09T14:36:20.852Z,47.60
2022-08-09T14:38:52.950Z,50.10
2022-08-09T14:41:34.841Z,49.50
2022-08-09T14:44:07.483Z,49.20
2022-08-09T14:46:54.807Z,47.70
2022-08-09T14:49:26.210Z,49.10
2022-08-09T14:51:58.722Z,49.20
2022-08-09T14:54:28.357Z,48.50
2022-08-09T14:56:58.067Z,47.20
2022-08-09T14:59:28.422Z,46.40
2022-08-09T15:01:55.778Z,47.60
2022-08-09T15:04:23.445Z,47.80
2022-08-09T15:06:51.361Z,46.10
2022-08-09T15:10:03.641Z,47.60
2022-08-09T15:12:07.747Z,47.60
2022-08-09T15:14:35.348Z,47.10
2022-08-09T15:17:09.288Z,48.30
2022-08-09T15:19:37.014Z,49.30
2022-08-09T15:22:21.990Z,49.70
2022-08-09T15:24:52.798Z,50.10
2022-08-09T15:27:19.405Z,50.40
2022-08-09T15:30:55.844Z,51.50
2022-08-09T15:32:32.709Z,49.50
2022-08-09T15:35:00.956Z,50.40
2022-08-09T15:37:37.047Z,49.40
2022-08-09T15:40:11.778Z,51.20
2022-08-09T15:42:39.772Z,50.50
2022-08-09T15:45:11.126Z,52.10
2022-08-09T15:47:52.918Z,52.10
2022-08-09T15:50:29.024Z,51.50
2022-08-09T15:53:07.007Z,51.80
2022-08-09T15:56:04.295Z,51.60
2022-08-09T15:58:29.199Z,52.20
2022-08-09T16:00:56.735Z,52.00
2022-08-09T16:03:29.704Z,51.00
2022-08-09T16:06:07.096Z,52.00
2022-08-09T16:08:56.021Z,51.50
2022-08-09T16:11:22.769Z,52.80
2022-08-09T16:14:03.054Z,52.40
2022-08-09T16:16:36.918Z,53.40
2022-08-09T16:19:08.612Z,52.60
2022-08-09T16:21:36.780Z,52.50
2022-08-09T16:24:07.991Z,53.90
2022-08-09T16:26:40.513Z,53.20
2022-08-09T16:29:12.019Z,52.50
2022-08-09T16:32:20.066Z,53.00
2022-08-09T16:34:55.197Z,53.60
2022-08-09T16:37:20.310Z,54.10
2022-08-09T16:40:08.383Z,55.20
2022-08-09T16:42:50.321Z,56.30
2022-08-09T16:45:21.297Z,55.90
2022-08-09T16:48:40.668Z,56.50
2022-08-09T16:50:38.547Z,56.90
2022-08-09T16:53:05.943Z,57.40
2022-08-09T16:55:59.016Z,57.80
2022-08-09T16:58:21.045Z,57.80
2022-08-09T17:00:48.823Z,57.20
2022-08-09T17:03:22.161Z,57.70
2022-08-09T17:06:08.144Z,57.60
2022-08-09T17:08:43.401Z,57.80
2022-08-09T17:11:40.854Z,58.20
2022-08-09T17:14:26.457Z,59.10
2022-08-09T17:17:02.623Z,58.90
2022-08-09T17:19:47.423Z,59.50
2022-08-09T17:22:23.917Z,59.70
2022-08-09T17:25:10.104Z,59.70
2022-08-09T17:27:49.535Z,59.90
2022-08-09T17:30:30.772Z,60.20
2022-08-09T17:33:05.607Z,60.00
2022-08-09T17:35:56.826Z,60.90
2022-08-09T17:38:30.981Z,61.30
2022-08-09T17:41:02.912Z,61.50
2022-08-09T17:44:38.981Z,61.70
2022-08-09T17:47:00.518Z,62.40
2022-08-09T17:49:36.215Z,63.10
2022-08-09T17:52:20.688Z,63.70
2022-08-09T17:55:08.145Z,63.80
2022-08-09T17:58:03.303Z,63.80
2022-08-09T18:00:43.892Z,64.10
2022-08-09T18:03:10.851Z,64.30
2022-08-09T18:05:43.370Z,65.10
2022-08-09T18:08:11.230Z,64.90
2022-08-09T18:10:40.170Z,65.00
2022-08-09T18:13:54.406Z,65.40
2022-08-09T18:16:07.883Z,65.70
2022-08-09T18:18:43.274Z,66.10
2022-08-09T18:21:19.610Z,66.50
2022-08-09T18:24:12.308Z,67.10
2022-08-09T18:26:46.280Z,67.60
2022-08-09T18:30:42.346Z,67.90
2022-08-09T18:32:04.048Z,68.40
2022-08-09T18:34:34.935Z,68.80
2022-08-09T18:37:47.206Z,69.30
2022-08-09T18:39:57.894Z,69.60
2022-08-09T18:42:28.290Z,69.80
2022-08-09T18:44:57.048Z,70.40
2022-08-09T18:47:37.201Z,70.70
2022-08-09T18:50:08.956Z,71.00
2022-08-09T18:52:37.286Z,71.60
2022-08-09T18:55:06.132Z,71.80
2022-08-09T18:57:43.522Z,72.30
2022-08-09T19:00:19.877Z,72.60
2022-08-09T19:02:48.482Z,73.40
2022-08-09T19:05:28.161Z,73.70
2022-08-09T19:08:10.663Z,74.30
2022-08-09T19:10:41.070Z,74.80
2022-08-09T19:13:20.839Z,75.20
2022-08-09T19:15:52.185Z,75.60
2022-08-09T19:18:33.798Z,75.90
2022-08-09T19:21:09.544Z,76.30
2022-08-09T19:24:31.883Z,76.40
2022-08-09T19:26:29.441Z,76.90
2022-08-09T19:29:15.416Z,77.50
2022-08-09T19:31:46.398Z,77.90
2022-08-09T19:34:21.607Z,78.60
2022-08-09T19:36:50.971Z,79.50
2022-08-09T19:39:17.808Z,80.00
2022-08-09T19:41:48.565Z,80.60
2022-08-09T19:44:17.741Z,81.60
2022-08-09T19:46:50.775Z,82.40
2022-08-09T19:50:49.055Z,83.10
2022-08-09T19:52:08.493Z,83.70
2022-08-09T19:54:35.716Z,84.40
2022-08-09T19:57:03.027Z,85.50
2022-08-09T19:59:57.039Z,86.30
2022-08-09T20:04:08.276Z,87.10
2022-08-09T20:05:10.092Z,88.10
2022-08-09T20:07:59.716Z,89.00
2022-08-09T20:10:36.503Z,90.10
2022-08-09T20:13:05.539Z,90.70
2022-08-09T20:16:33.949Z,91.60
2022-08-09T20:18:20.264Z,92.40
2022-08-09T20:20:50.547Z,93.20
2022-08-09T20:23:19.533Z,93.90
2022-08-09T20:25:52.884Z,94.70
2022-08-09T20:28:34.289Z,95.80
2022-08-09T20:31:05.612Z,96.70
2022-08-09T20:33:39.086Z,97.60
2022-08-09T20:36:11.106Z,98.80
2022-08-09T20:39:04.314Z,99.90
2022-08-09T20:41:34.847Z,99.90
2022-08-09T20:44:06.897Z,99.90
2022-08-09T20:46:43.001Z,99.90
2022-08-09T20:49:15.985Z,99.90
2022-08-09T20:51:43.968Z,99.90
2022-08-09T20:54:16.859Z,99.90
2022-08-09T20:56:49.677Z,99.90
2022-08-09T20:59:50.344Z,99.90
2022-08-09T21:02:08.811Z,99.90
2022-08-09T21:05:54.869Z,99.90
2022-08-09T21:07:24.868Z,99.90
2022-08-09T21:10:06.032Z,99.90
2022-08-09T21:12:37.644Z,99.90
2022-08-09T21:15:05.128Z,99.90
2022-08-09T21:18:22.064Z,99.90
2022-08-09T21:20:25.361Z,99.90
2022-08-09T21:22:54.512Z,99.90
2022-08-09T21:25:54.182Z,99.90
2022-08-09T21:28:34.394Z,99.90
2022-08-09T21:31:16.326Z,99.90
2022-08-09T21:33:50.483Z,99.90
2022-08-09T21:36:19.556Z,99.90
2022-08-09T21:38:56.678Z,99.90
2022-08-09T21:42:00.214Z,99.90
2022-08-09T21:44:10.586Z,99.90
2022-08-09T21:46:37.416Z,99.90
2022-08-09T21:49:07.461Z,99.90
2022-08-09T21:51:36.372Z,99.90
2022-08-09T21:54:10.321Z,99.90
2022-08-09T21:56:44.498Z,99.90
2022-08-09T21:59:23.523Z,99.90
2022-08-09T22:02:01.068Z,99.90
2022-08-09T22:04:55.532Z,99.90
2022-08-09T22:07:35.480Z,99.90
2022-08-09T22:10:08.519Z,99.90
2022-08-09T22:12:37.347Z,99.90
2022-08-09T22:15:07.207Z,99.90
2022-08-09T22:17:46.589Z,99.90
2022-08-09T22:20:16.839Z,99.90
2022-08-09T22:22:48.862Z,99.90
2022-08-09T22:26:06.491Z,99.90
2022-08-09T22:28:06.572Z,99.90
2022-08-09T22:30:34.354Z,99.90
2022-08-09T22:33:01.642Z,99.90
2022-08-09T22:36:00.794Z,99.90
2022-08-09T22:38:16.423Z,99.90
2022-08-09T22:40:48.924Z,99.90
2022-08-09T22:44:02.541Z,99.90
2022-08-09T22:48:14.265Z,99.90
2022-08-09T22:49:01.957Z,99.90
2022-08-09T22:51:38.417Z,99.90
2022-08-09T22:54:08.106Z,99.90
2022-08-09T22:56:41.471Z,99.90
2022-08-09T22:59:58.257Z,99.90
2022-08-09T23:01:56.346Z,99.90
2022-08-09T23:04:25.410Z,99.90
2022-08-09T23:07:13.844Z,99.90
2022-08-09T23:09:41.260Z,99.90
2022-08-09T23:12:08.373Z,99.90
2022-08-09T23:14:42.411Z,99.90
2022-08-09T23:17:11.108Z,99.90
2022-08-09T23:20:00.626Z,99.90
2022-08-09T23:22:25.037Z,99.90
2022-08-09T23:24:51.773Z,99.90
2022-08-09T23:27:18.635Z,99.90
2022-08-09T23:29:45.407Z,99.90
2022-08-09T23:32:12.528Z,99.90
2022-08-09T23:34:39.565Z,99.90
2022-08-09T23:37:06.573Z,99.90
2022-08-09T23:39:33.399Z,99.90
2022-08-09T23:42:00.106Z,99.90
2022-08-09T23:44:26.779Z,99.90
2022-08-09T23:46:57.342Z,99.90
2022-08-09T23:49:25.727Z,99.90
2022-08-09T23:51:53.434Z,99.90
2022-08-09T23:54:21.014Z,99.90
2022-08-09T23:56:58.116Z,99.90
2022-08-09T23:59:25.381Z,99.90
